createdAt,value
2023-03-18T00:02:21.916Z,98.80
2023-03-18T00:04:51.420Z,99.15
2023-03-18T00:07:22.543Z,98.47
2023-03-18T00:09:52.857Z,98.88
2023-03-18T00:12:21.962Z,100.00
2023-03-18T00:14:51.582Z,98.67
2023-03-18T00:17:21.445Z,98.90
2023-03-18T00:19:50.534Z,100.00
2023-03-18T00:22:20.949Z,100.00
2023-03-18T00:24:50.040Z,100.00
2023-03-18T00:27:19.157Z,100.00
2023-03-18T00:29:48.675Z,100.00
2023-03-18T00:32:17.767Z,100.00
2023-03-18T00:34:46.918Z,100.00
2023-03-18T00:37:20.096Z,100.00
2023-03-18T00:39:50.751Z,100.00
2023-03-18T00:42:19.773Z,100.00
2023-03-18T00:44:49.027Z,100.00
2023-03-18T00:47:18.120Z,100.00
2023-03-18T00:49:47.322Z,100.00
2023-03-18T00:52:16.677Z,100.00
2023-03-18T00:54:45.942Z,100.00
2023-03-18T00:57:16.366Z,100.00
2023-03-18T00:59:45.600Z,100.00
2023-03-18T01:02:14.956Z,100.00
2023-03-18T01:04:48.995Z,100.00
2023-03-18T01:07:19.759Z,100.00
2023-03-18T01:09:51.181Z,100.00
2023-03-18T01:12:22.808Z,100.00
2023-03-18T01:14:52.598Z,100.00
2023-03-18T01:17:21.976Z,100.00
2023-03-18T01:19:51.125Z,100.00
2023-03-18T01:22:20.619Z,100.00
2023-03-18T01:24:52.765Z,100.00
2023-03-18T01:27:28.995Z,100.00
2023-03-18T01:30:01.198Z,100.00
2023-03-18T01:32:30.787Z,100.00
2023-03-18T01:35:00.989Z,100.00
2023-03-18T01:37:31.572Z,100.00
2023-03-18T01:40:14.646Z,100.00
2023-03-18T01:42:54.037Z,100.00
2023-03-18T01:45:28.636Z,100.00
2023-03-18T01:48:00.009Z,100.00
2023-03-18T01:50:33.815Z,100.00
2023-03-18T01:53:08.053Z,100.00
2023-03-18T01:55:39.931Z,100.00
2023-03-18T01:58:17.246Z,100.00
2023-03-18T02:00:53.696Z,100.00
2023-03-18T02:03:23.622Z,100.00
2023-03-18T02:05:53.853Z,100.00
2023-03-18T02:08:25.039Z,100.00
2023-03-18T02:10:54.522Z,100.00
2023-03-18T02:13:29.172Z,100.00
2023-03-18T02:16:14.319Z,100.00
2023-03-18T02:18:48.897Z,100.00
2023-03-18T02:21:45.023Z,100.00
2023-03-18T02:24:25.946Z,100.00
2023-03-18T02:27:01.512Z,100.00
2023-03-18T02:29:42.300Z,100.00
2023-03-18T02:32:18.577Z,100.00
2023-03-18T02:34:48.498Z,100.00
2023-03-18T02:37:17.610Z,100.00
2023-03-18T02:39:46.851Z,100.00
2023-03-18T02:42:18.300Z,100.00
2023-03-18T02:44:54.035Z,100.00
2023-03-18T02:47:48.950Z,100.00
2023-03-18T02:50:18.484Z,100.00
2023-03-18T02:52:47.650Z,100.00
2023-03-18T02:55:16.922Z,100.00
2023-03-18T02:57:46.230Z,100.00
2023-03-18T03:00:17.524Z,100.00
2023-03-18T03:02:46.974Z,100.00
2023-03-18T03:05:17.567Z,100.00
2023-03-18T03:07:46.728Z,100.00
2023-03-18T03:10:15.940Z,100.00
2023-03-18T03:12:46.334Z,100.00
2023-03-18T03:15:19.795Z,100.00
2023-03-18T03:17:55.559Z,100.00
2023-03-18T03:20:24.946Z,100.00
2023-03-18T03:22:54.444Z,100.00
2023-03-18T03:25:23.782Z,100.00
2023-03-18T03:27:52.956Z,100.00
2023-03-18T03:30:24.082Z,100.00
2023-03-18T03:32:53.639Z,100.00
2023-03-18T03:35:23.252Z,100.00
2023-03-18T03:37:52.613Z,100.00
2023-03-18T03:40:22.654Z,100.00
2023-03-18T03:42:53.329Z,100.00
2023-03-18T03:45:24.956Z,100.00
2023-03-18T03:47:55.951Z,100.00
2023-03-18T03:50:25.557Z,100.00
2023-03-18T03:52:54.605Z,100.00
2023-03-18T03:55:24.503Z,100.00
2023-03-18T03:57:57.616Z,100.00
2023-03-18T04:00:30.962Z,100.00
2023-03-18T04:03:00.454Z,100.00
2023-03-18T04:05:30.025Z,100.00
2023-03-18T04:08:01.861Z,100.00
2023-03-18T04:10:38.457Z,100.00
2023-03-18T04:13:10.968Z,100.00
2023-03-18T04:15:46.106Z,100.00
2023-03-18T04:18:19.372Z,100.00
2023-03-18T04:20:48.576Z,100.00
2023-03-18T04:23:43.389Z,100.00
2023-03-18T04:26:13.265Z,100.00
2023-03-18T04:28:43.010Z,100.00
2023-03-18T04:31:16.860Z,100.00
2023-03-18T04:33:46.300Z,100.00
2023-03-18T04:36:15.586Z,100.00
2023-03-18T04:38:44.646Z,100.00
2023-03-18T04:41:13.718Z,100.00
2023-03-18T04:43:43.441Z,100.00
2023-03-18T04:46:13.217Z,100.00
2023-03-18T04:48:45.800Z,100.00
2023-03-18T04:51:15.600Z,100.00
2023-03-18T04:53:45.810Z,100.00
2023-03-18T04:56:15.938Z,100.00
2023-03-18T04:58:50.858Z,100.00
2023-03-18T05:01:24.663Z,100.00
2023-03-18T05:03:56.113Z,100.00
2023-03-18T05:06:35.677Z,100.00
2023-03-18T05:09:13.346Z,100.00
2023-03-18T05:11:44.227Z,100.00
2023-03-18T05:14:28.944Z,100.00
2023-03-18T05:16:58.702Z,100.00
2023-03-18T05:19:30.385Z,100.00
2023-03-18T05:22:11.719Z,100.00
2023-03-18T05:24:41.576Z,100.00
2023-03-18T05:27:12.265Z,100.00
2023-03-18T05:29:44.536Z,100.00
2023-03-18T05:32:40.603Z,100.00
2023-03-18T05:35:12.890Z,100.00
2023-03-18T05:37:49.547Z,100.00
2023-03-18T05:40:19.379Z,100.00
2023-03-18T05:43:21.852Z,100.00
2023-03-18T05:45:55.348Z,100.00
2023-03-18T05:48:34.269Z,100.00
2023-03-18T05:51:08.556Z,100.00
2023-03-18T05:53:39.732Z,100.00
2023-03-18T05:56:20.859Z,100.00
2023-03-18T05:58:54.435Z,100.00
2023-03-18T06:01:37.474Z,100.00
2023-03-18T06:04:10.291Z,100.00
2023-03-18T06:06:41.154Z,100.00
2023-03-18T06:09:12.072Z,100.00
2023-03-18T06:11:44.607Z,100.00
2023-03-18T06:14:14.452Z,100.00
2023-03-18T06:16:43.986Z,100.00
2023-03-18T06:19:14.540Z,100.00
2023-03-18T06:21:45.586Z,100.00
2023-03-18T06:24:16.205Z,100.00
2023-03-18T06:26:45.736Z,100.00
2023-03-18T06:29:15.041Z,100.00
2023-03-18T06:31:44.026Z,100.00
2023-03-18T06:34:16.472Z,100.00
2023-03-18T06:36:47.523Z,100.00
2023-03-18T06:39:20.110Z,100.00
2023-03-18T06:41:49.251Z,100.00
2023-03-18T06:44:43.213Z,100.00
2023-03-18T06:47:22.270Z,100.00
2023-03-18T06:49:57.526Z,100.00
2023-03-18T06:52:34.202Z,100.00
2023-03-18T06:55:13.078Z,100.00
2023-03-18T06:57:45.728Z,100.00
2023-03-18T07:00:19.487Z,100.00
2023-03-18T07:02:50.564Z,100.00
2023-03-18T07:05:21.795Z,100.00
2023-03-18T07:07:52.951Z,100.00
2023-03-18T07:10:25.663Z,99.30
2023-03-18T07:12:58.738Z,97.54
2023-03-18T07:15:27.937Z,98.95
2023-03-18T07:18:00.513Z,97.70
2023-03-18T07:20:30.079Z,96.42
2023-03-18T07:23:00.575Z,95.37
2023-03-18T07:25:31.734Z,98.46
2023-03-18T07:28:05.038Z,97.39
2023-03-18T07:30:34.843Z,93.11
2023-03-18T07:33:04.723Z,88.54
2023-03-18T07:35:34.749Z,88.10
2023-03-18T07:38:05.422Z,84.17
2023-03-18T07:40:34.632Z,80.97
2023-03-18T07:43:03.711Z,74.56
2023-03-18T07:45:33.547Z,69.85
2023-03-18T07:48:02.890Z,66.28
2023-03-18T07:50:32.046Z,64.99
2023-03-18T07:53:01.622Z,62.98
2023-03-18T07:55:32.155Z,60.10
2023-03-18T07:58:01.426Z,59.32
2023-03-18T08:00:30.966Z,57.74
2023-03-18T08:03:00.967Z,55.61
2023-03-18T08:05:30.568Z,54.34
2023-03-18T08:07:59.870Z,53.71
2023-03-18T08:10:32.609Z,53.20
2023-03-18T08:13:01.683Z,52.04
2023-03-18T08:15:31.697Z,52.14
2023-03-18T08:18:01.244Z,51.62
2023-03-18T08:20:30.272Z,52.24
2023-03-18T08:22:59.446Z,53.26
2023-03-18T08:25:28.559Z,49.48
2023-03-18T08:27:59.106Z,49.69
2023-03-18T08:30:28.941Z,49.36
2023-03-18T08:33:01.055Z,48.21
2023-03-18T08:35:30.935Z,48.70
2023-03-18T08:38:00.438Z,50.00
2023-03-18T08:40:29.650Z,50.43
2023-03-18T08:43:00.170Z,49.41
2023-03-18T08:45:29.697Z,50.44
2023-03-18T08:47:58.781Z,50.00
2023-03-18T08:50:29.808Z,49.78
2023-03-18T08:53:01.571Z,49.46
2023-03-18T08:55:34.495Z,49.54
2023-03-18T08:58:07.290Z,49.20
2023-03-18T09:00:39.267Z,48.57
2023-03-18T09:03:08.933Z,48.28
2023-03-18T09:05:38.884Z,48.68
2023-03-18T09:08:08.048Z,47.13
2023-03-18T09:10:37.216Z,47.51
2023-03-18T09:13:08.270Z,47.57
2023-03-18T09:15:37.604Z,47.88
2023-03-18T09:18:12.280Z,47.81
2023-03-18T09:20:41.849Z,46.37
2023-03-18T09:23:12.334Z,44.58
2023-03-18T09:25:42.843Z,45.41
2023-03-18T09:28:14.235Z,46.05
2023-03-18T09:30:44.006Z,44.78
2023-03-18T09:33:13.765Z,44.93
2023-03-18T09:35:44.796Z,44.42
2023-03-18T09:38:16.649Z,45.04
2023-03-18T09:41:00.812Z,45.65
2023-03-18T09:43:53.469Z,44.62
2023-03-18T09:46:34.539Z,45.88
2023-03-18T09:49:54.982Z,45.06
2023-03-18T09:52:28.310Z,43.21
2023-03-18T09:55:04.931Z,44.96
2023-03-18T10:22:38.165Z,42.79
2023-03-18T10:25:21.236Z,42.35
2023-03-18T10:28:03.531Z,43.63
2023-03-18T10:30:55.128Z,42.13
2023-03-18T10:33:37.114Z,42.42
2023-03-18T10:36:13.919Z,40.77
2023-03-18T10:38:48.636Z,42.79
2023-03-18T10:41:24.656Z,42.58
2023-03-18T10:43:56.912Z,41.85
2023-03-18T10:46:28.418Z,43.81
2023-03-18T10:49:06.257Z,42.18
2023-03-18T10:51:41.249Z,43.29
2023-03-18T10:54:17.882Z,43.31
2023-03-18T10:56:47.010Z,41.91
2023-03-18T10:59:19.850Z,42.29
2023-03-18T11:01:54.204Z,40.36
2023-03-18T11:04:25.507Z,40.57
2023-03-18T11:06:58.800Z,40.85
2023-03-18T11:09:36.184Z,39.36
2023-03-18T11:12:07.454Z,39.74
2023-03-18T11:14:38.497Z,39.69
2023-03-18T11:17:21.066Z,39.38
2023-03-18T11:20:00.846Z,40.23
2023-03-18T11:22:32.164Z,38.36
2023-03-18T11:25:14.309Z,38.07
2023-03-18T11:27:46.372Z,36.59
2023-03-18T11:30:38.631Z,34.87
2023-03-18T11:33:17.435Z,35.83
2023-03-18T11:35:51.815Z,34.25
2023-03-18T11:38:28.673Z,35.09
2023-03-18T11:41:10.054Z,36.47
2023-03-18T11:43:39.448Z,36.56
2023-03-18T11:46:11.840Z,35.90
2023-03-18T11:48:43.342Z,34.45
2023-03-18T11:51:44.646Z,33.39
2023-03-18T11:54:39.525Z,34.25
2023-03-18T11:57:19.656Z,32.75
2023-03-18T12:00:05.960Z,33.63
2023-03-18T12:03:28.041Z,32.58
2023-03-18T12:06:10.847Z,30.09
2023-03-18T12:08:54.342Z,30.64
2023-03-18T12:11:36.242Z,31.52
2023-03-18T12:14:17.451Z,29.44
2023-03-18T12:17:04.152Z,31.70
2023-03-18T12:20:07.435Z,31.01
2023-03-18T12:22:55.208Z,30.37
2023-03-18T12:25:47.122Z,31.63
2023-03-18T12:28:30.104Z,31.16
2023-03-18T12:31:24.825Z,31.35
2023-03-18T12:33:57.685Z,31.79
2023-03-18T12:36:42.232Z,30.16
2023-03-18T12:40:00.528Z,30.88
2023-03-18T12:42:43.478Z,28.00
2023-03-18T12:45:18.503Z,27.28
2023-03-18T12:47:53.287Z,27.76
2023-03-18T12:50:27.935Z,27.55
2023-03-18T12:53:01.856Z,26.94
2023-03-18T12:55:35.594Z,24.51
2023-03-18T12:58:14.238Z,23.53
2023-03-18T13:00:49.328Z,25.27
2023-03-18T13:03:32.632Z,25.63
2023-03-18T13:06:07.620Z,29.00
2023-03-18T13:09:00.736Z,27.20
2023-03-18T13:12:01.904Z,23.18
2023-03-18T13:14:44.828Z,23.27
2023-03-18T13:17:16.654Z,23.55
2023-03-18T13:19:47.362Z,23.90
2023-03-18T13:22:51.844Z,23.80
2023-03-18T13:25:35.456Z,23.55
2023-03-18T13:28:29.481Z,22.60
2023-03-18T13:31:12.403Z,21.89
2023-03-18T13:34:26.263Z,22.57
2023-03-18T13:37:36.046Z,21.91
2023-03-18T13:40:38.478Z,22.90
2023-03-18T13:43:14.234Z,22.65
2023-03-18T13:45:47.249Z,21.55
2023-03-18T13:48:19.728Z,19.92
2023-03-18T13:50:51.975Z,20.76
2023-03-18T13:53:28.040Z,18.09
2023-03-18T13:56:07.063Z,16.96
2023-03-18T13:58:45.212Z,17.64
2023-03-18T14:01:32.096Z,18.77
2023-03-18T14:04:20.384Z,20.00
2023-03-18T14:07:01.486Z,20.68
2023-03-18T14:09:37.310Z,21.51
2023-03-18T14:12:22.657Z,20.97
2023-03-18T14:15:02.677Z,20.18
2023-03-18T14:17:45.678Z,18.45
2023-03-18T14:20:40.555Z,19.58
2023-03-18T14:23:34.527Z,18.44
2023-03-18T14:26:08.926Z,21.17
2023-03-18T14:28:47.271Z,21.54
2023-03-18T14:31:33.623Z,23.11
2023-03-18T14:34:26.129Z,21.07
2023-03-18T14:37:25.539Z,19.02
2023-03-18T14:39:58.368Z,17.98
2023-03-18T14:42:46.176Z,16.85
2023-03-18T14:45:21.052Z,16.71
2023-03-18T14:47:52.802Z,17.57
2023-03-18T14:50:33.774Z,17.67
2023-03-18T14:53:11.444Z,17.52
2023-03-18T14:55:40.539Z,18.80
2023-03-18T14:58:19.970Z,20.24
2023-03-18T15:00:53.310Z,21.94
2023-03-18T15:03:26.732Z,23.51
2023-03-18T15:06:00.454Z,24.39
2023-03-18T15:08:46.830Z,25.10
2023-03-18T15:11:20.601Z,25.38
2023-03-18T15:13:54.675Z,24.67
2023-03-18T15:16:25.698Z,24.84
2023-03-18T15:18:56.536Z,25.34
2023-03-18T15:21:30.239Z,26.43
2023-03-18T15:24:04.610Z,27.81
2023-03-18T15:26:41.410Z,28.95
2023-03-18T15:29:29.129Z,29.63
2023-03-18T15:32:10.788Z,30.05
2023-03-18T15:34:43.861Z,29.83
2023-03-18T15:37:33.555Z,29.94
2023-03-18T15:40:35.395Z,31.56
2023-03-18T15:43:20.351Z,32.73
2023-03-18T15:45:57.164Z,33.59
2023-03-18T15:48:32.055Z,34.01
2023-03-18T15:51:04.330Z,34.98
2023-03-18T15:53:44.533Z,35.58
2023-03-18T15:56:19.900Z,36.21
2023-03-18T15:59:00.860Z,36.42
2023-03-18T16:01:31.740Z,36.95
2023-03-18T16:04:00.967Z,35.59
2023-03-18T16:06:29.929Z,34.28
2023-03-18T16:08:59.007Z,32.85
2023-03-18T16:11:28.068Z,31.74
2023-03-18T16:13:57.186Z,31.42
2023-03-18T16:16:29.422Z,31.95
2023-03-18T16:19:00.509Z,33.55
2023-03-18T16:21:29.441Z,34.70
2023-03-18T16:23:58.338Z,34.45
2023-03-18T16:26:27.410Z,34.91
2023-03-18T16:28:56.479Z,35.45
2023-03-18T16:31:25.903Z,35.77
2023-03-18T16:33:56.169Z,35.84
2023-03-18T16:36:35.057Z,36.37
2023-03-18T16:39:16.422Z,36.55
2023-03-18T16:41:46.140Z,37.32
2023-03-18T16:44:18.560Z,37.78
2023-03-18T16:46:51.216Z,37.88
2023-03-18T16:49:24.521Z,38.46
2023-03-18T16:51:58.086Z,39.36
2023-03-18T16:54:29.542Z,40.00
2023-03-18T16:57:01.591Z,40.54
2023-03-18T16:59:34.040Z,42.06
2023-03-18T17:02:04.268Z,42.62
2023-03-18T17:04:36.209Z,44.20
2023-03-18T17:07:06.889Z,44.49
2023-03-18T17:09:35.818Z,45.59
2023-03-18T17:12:07.528Z,46.80
2023-03-18T17:14:39.862Z,47.71
2023-03-18T17:17:19.173Z,48.34
2023-03-18T17:19:48.570Z,50.21
2023-03-18T17:22:23.409Z,51.39
2023-03-18T17:24:52.715Z,51.86
2023-03-18T17:27:25.577Z,54.46
2023-03-18T17:29:55.035Z,56.03
2023-03-18T17:32:30.422Z,57.58
2023-03-18T17:34:59.451Z,58.16
2023-03-18T17:37:30.414Z,59.54
2023-03-18T17:39:59.440Z,60.29
2023-03-18T17:42:31.430Z,59.58
2023-03-18T17:45:07.512Z,59.22
2023-03-18T17:47:36.781Z,60.52
2023-03-18T17:50:06.712Z,62.51
2023-03-18T17:52:39.665Z,61.51
2023-03-18T17:55:17.321Z,64.78
2023-03-18T17:57:46.572Z,63.75
2023-03-18T18:00:21.418Z,62.72
2023-03-18T18:02:50.715Z,62.68
2023-03-18T18:05:23.200Z,64.27
2023-03-18T18:07:53.489Z,64.93
2023-03-18T18:10:22.592Z,68.26
2023-03-18T18:12:51.519Z,68.42
2023-03-18T18:15:25.547Z,69.54
2023-03-18T18:17:55.759Z,71.14
2023-03-18T18:20:24.748Z,72.05
2023-03-18T18:22:58.090Z,73.57
2023-03-18T18:25:30.251Z,73.96
2023-03-18T18:27:59.372Z,73.16
2023-03-18T18:30:28.554Z,74.00
2023-03-18T18:32:57.701Z,70.82
2023-03-18T18:35:26.997Z,73.67
2023-03-18T18:37:57.372Z,73.66
2023-03-18T18:40:26.321Z,75.29
2023-03-18T18:42:55.237Z,77.74
2023-03-18T18:45:24.185Z,78.55
2023-03-18T18:47:53.366Z,79.17
2023-03-18T18:50:28.191Z,81.77
2023-03-18T18:52:58.576Z,79.05
2023-03-18T18:55:27.618Z,76.32
2023-03-18T18:57:57.694Z,79.37
2023-03-18T19:00:27.201Z,82.88
2023-03-18T19:02:57.363Z,83.37
2023-03-18T19:05:26.575Z,83.95
2023-03-18T19:07:55.500Z,84.86
2023-03-18T19:10:26.485Z,84.82
2023-03-18T19:12:55.500Z,85.72
2023-03-18T19:15:24.695Z,87.44
2023-03-18T19:17:53.893Z,87.47
2023-03-18T19:20:31.782Z,88.49
2023-03-18T19:23:01.769Z,88.52
2023-03-18T19:25:34.990Z,88.01
2023-03-18T19:28:04.406Z,87.40
2023-03-18T19:30:34.056Z,86.80
2023-03-18T19:33:03.774Z,84.96
2023-03-18T19:35:33.009Z,83.67
2023-03-18T19:38:02.630Z,87.60
2023-03-18T19:40:34.172Z,91.67
2023-03-18T19:43:03.140Z,94.92
2023-03-18T19:45:32.562Z,98.44
2023-03-18T19:48:02.224Z,99.19
2023-03-18T19:50:31.693Z,97.85
2023-03-18T19:53:00.876Z,97.95
2023-03-18T19:55:29.975Z,96.96
2023-03-18T19:58:00.773Z,95.06
2023-03-18T20:00:30.580Z,94.36
2023-03-18T20:02:59.965Z,95.94
2023-03-18T20:05:29.078Z,96.22
2023-03-18T20:07:58.149Z,99.82
2023-03-18T20:10:27.089Z,100.00
2023-03-18T20:12:56.286Z,100.00
2023-03-18T20:15:29.285Z,100.00
2023-03-18T20:18:00.734Z,100.00
2023-03-18T20:20:32.259Z,100.00
2023-03-18T20:23:03.892Z,100.00
2023-03-18T20:25:37.672Z,100.00
2023-03-18T20:28:08.963Z,100.00
2023-03-18T20:30:41.461Z,100.00
2023-03-18T20:33:14.000Z,100.00
2023-03-18T20:35:49.231Z,100.00
2023-03-18T20:38:27.555Z,100.00
2023-03-18T20:40:57.291Z,100.00
2023-03-18T20:43:28.601Z,100.00
2023-03-18T20:46:02.230Z,100.00
2023-03-18T20:48:31.500Z,100.00
2023-03-18T20:51:00.502Z,100.00
2023-03-18T20:53:29.762Z,100.00
2023-03-18T20:56:10.016Z,100.00
2023-03-18T20:58:39.162Z,100.00
2023-03-18T21:01:13.761Z,100.00
2023-03-18T21:03:43.552Z,100.00
2023-03-18T21:06:15.790Z,100.00
2023-03-18T21:08:44.899Z,100.00
2023-03-18T21:11:35.846Z,100.00
2023-03-18T21:14:05.741Z,100.00
2023-03-18T21:16:37.836Z,100.00
2023-03-18T21:19:07.072Z,100.00
2023-03-18T21:21:39.274Z,100.00
2023-03-18T21:24:26.170Z,100.00
2023-03-18T21:27:04.204Z,100.00
2023-03-18T21:29:35.099Z,100.00
2023-03-18T21:32:06.425Z,100.00
2023-03-18T21:34:35.403Z,100.00
2023-03-18T21:37:04.545Z,100.00
2023-03-18T21:39:33.612Z,100.00
2023-03-18T21:42:07.024Z,100.00
2023-03-18T21:44:36.549Z,100.00
2023-03-18T21:47:07.558Z,100.00
2023-03-18T21:49:36.583Z,100.00
2023-03-18T21:52:06.055Z,100.00
2023-03-18T21:54:35.138Z,100.00
2023-03-18T21:57:04.130Z,100.00
2023-03-18T21:59:33.130Z,100.00
2023-03-18T22:02:02.074Z,100.00
2023-03-18T22:04:34.994Z,100.00
2023-03-18T22:07:03.939Z,100.00
2023-03-18T22:09:34.076Z,100.00
2023-03-18T22:12:03.131Z,100.00
2023-03-18T22:14:32.148Z,100.00
2023-03-18T22:17:01.556Z,100.00
2023-03-18T22:19:31.963Z,100.00
2023-03-18T22:22:00.973Z,100.00
2023-03-18T22:24:30.104Z,100.00
2023-03-18T22:26:59.042Z,100.00
2023-03-18T22:29:28.041Z,100.00
2023-03-18T22:31:57.023Z,100.00
2023-03-18T22:34:26.388Z,100.00
2023-03-18T22:36:56.748Z,100.00
2023-03-18T22:39:26.010Z,100.00
2023-03-18T22:41:55.138Z,100.00
2023-03-18T22:44:25.279Z,100.00
2023-03-18T22:46:54.203Z,100.00
2023-03-18T22:49:23.089Z,100.00
2023-03-18T22:51:52.188Z,100.00
2023-03-18T22:54:26.322Z,100.00
2023-03-18T22:56:56.429Z,100.00
2023-03-18T22:59:26.844Z,100.00
2023-03-18T23:01:55.779Z,100.00
2023-03-18T23:04:24.846Z,100.00
2023-03-18T23:06:53.901Z,100.00
2023-03-18T23:09:24.223Z,100.00
2023-03-18T23:11:53.234Z,100.00
2023-03-18T23:14:22.177Z,100.00
2023-03-18T23:16:51.185Z,100.00
2023-03-18T23:19:20.383Z,100.00
2023-03-18T23:21:49.340Z,100.00
2023-03-18T23:24:18.211Z,100.00
2023-03-18T23:26:48.587Z,100.00
2023-03-18T23:29:17.783Z,100.00
2023-03-18T23:31:47.062Z,100.00
2023-03-18T23:34:16.063Z,100.00
2023-03-18T23:36:45.021Z,100.00
2023-03-18T23:39:14.154Z,100.00
2023-03-18T23:41:43.100Z,100.00
2023-03-18T23:44:13.553Z,100.00
2023-03-18T23:46:44.116Z,100.00
2023-03-18T23:49:14.087Z,100.00
2023-03-18T23:51:43.195Z,100.00
2023-03-18T23:54:12.285Z,100.00
2023-03-18T23:56:41.441Z,100.00
2023-03-18T23:59:10.548Z,100.00
